createdAt,value
2022-08-20T00:00:18.420Z,2.50
2022-08-20T00:03:11.544Z,3.05
2022-08-20T00:05:48.630Z,2.90
2022-08-20T00:08:19.324Z,3.13
2022-08-20T00:10:54.994Z,3.05
2022-08-20T00:13:28.790Z,3.22
2022-08-20T00:15:57.067Z,3.05
2022-08-20T00:18:26.168Z,2.90
2022-08-20T00:20:56.369Z,3.22
2022-08-20T00:23:24.942Z,2.88
2022-08-20T00:25:54.104Z,2.80
2022-08-20T00:28:23.121Z,2.60
2022-08-20T00:30:51.875Z,2.85
2022-08-20T00:33:22.932Z,2.60
2022-08-20T00:35:56.516Z,3.40
2022-08-20T00:38:26.046Z,2.83
2022-08-20T00:40:57.400Z,2.92
2022-08-20T00:43:38.458Z,2.65
2022-08-20T00:46:11.126Z,2.83
2022-08-20T00:48:42.333Z,2.80
2022-08-20T00:53:40.318Z,2.50
2022-08-20T00:56:09.817Z,3.63
2022-08-20T00:58:40.409Z,2.83
2022-08-20T01:01:09.580Z,2.88
2022-08-20T01:03:38.770Z,3.35
2022-08-20T01:06:12.013Z,2.65
2022-08-20T01:08:41.239Z,2.50
2022-08-20T01:11:12.342Z,2.80
2022-08-20T01:16:18.829Z,2.95
2022-08-20T01:18:48.428Z,2.83
2022-08-20T01:21:23.201Z,2.70
2022-08-20T01:24:30.493Z,2.50
2022-08-20T01:27:02.940Z,3.67
2022-08-20T01:29:38.725Z,2.78
2022-08-20T01:32:07.991Z,2.90
2022-08-20T01:34:35.966Z,2.83
2022-08-20T01:37:04.234Z,2.97
2022-08-20T01:39:36.056Z,2.90
2022-08-20T01:42:59.009Z,2.85
2022-08-20T01:45:30.839Z,2.63
2022-08-20T01:47:59.710Z,2.65
2022-08-20T01:50:32.556Z,2.75
2022-08-20T01:53:17.836Z,2.85
2022-08-20T01:55:47.477Z,2.97
2022-08-20T01:58:16.718Z,2.63
2022-08-20T02:00:44.578Z,2.80
2022-08-20T02:03:12.835Z,2.88
2022-08-20T02:07:59.713Z,2.90
2022-08-20T02:10:31.841Z,2.80
2022-08-20T02:13:01.516Z,2.80
2022-08-20T02:18:11.177Z,2.47
2022-08-20T02:20:40.636Z,3.00
2022-08-20T02:23:09.013Z,2.63
2022-08-20T02:25:40.199Z,2.45
2022-08-20T02:28:13.472Z,2.72
2022-08-20T02:30:47.007Z,2.70
2022-08-20T02:33:19.687Z,2.50
2022-08-20T02:35:55.601Z,2.88
2022-08-20T02:38:23.821Z,2.75
2022-08-20T02:40:52.779Z,2.78
2022-08-20T02:43:21.708Z,2.78
2022-08-20T02:45:51.605Z,2.40
2022-08-20T02:48:21.728Z,2.70
2022-08-20T02:51:05.064Z,2.92
2022-08-20T02:53:37.484Z,3.28
2022-08-20T02:56:06.929Z,2.80
2022-08-20T02:58:35.988Z,2.90
2022-08-20T03:01:06.474Z,3.17
2022-08-20T03:03:34.978Z,2.80
2022-08-20T03:06:05.129Z,2.60
2022-08-20T03:08:34.015Z,3.05
2022-08-20T03:11:02.357Z,2.50
2022-08-20T03:13:31.878Z,2.78
2022-08-20T03:16:03.100Z,3.10
2022-08-20T03:21:07.352Z,3.78
2022-08-20T03:23:40.469Z,3.80
2022-08-20T03:26:11.957Z,3.03
2022-08-20T03:28:42.372Z,3.75
2022-08-20T03:31:14.858Z,2.78
2022-08-20T03:33:52.970Z,2.97
2022-08-20T03:36:28.051Z,2.83
2022-08-20T03:39:04.765Z,2.58
2022-08-20T03:41:33.700Z,2.70
2022-08-20T03:44:01.950Z,3.30
2022-08-20T03:46:29.725Z,3.35
2022-08-20T03:49:00.007Z,2.67
2022-08-20T03:51:30.809Z,3.15
2022-08-20T03:53:59.816Z,2.47
2022-08-20T03:56:28.689Z,3.10
2022-08-20T03:58:57.118Z,2.78
2022-08-20T04:01:44.490Z,2.90
2022-08-20T04:04:13.353Z,2.90
2022-08-20T04:06:42.980Z,2.92
2022-08-20T04:09:11.994Z,2.53
2022-08-20T04:11:42.771Z,3.15
2022-08-20T04:14:11.946Z,2.80
2022-08-20T04:16:45.636Z,3.20
2022-08-20T04:19:16.794Z,2.80
2022-08-20T04:21:48.417Z,2.60
2022-08-20T04:24:22.021Z,2.80
2022-08-20T04:27:03.014Z,2.92
2022-08-20T04:29:35.304Z,2.72
2022-08-20T04:32:06.114Z,2.70
2022-08-20T04:34:37.468Z,3.58
2022-08-20T04:37:05.722Z,3.10
2022-08-20T04:39:45.560Z,2.83
2022-08-20T04:42:13.577Z,2.70
2022-08-20T04:44:41.884Z,3.15
2022-08-20T04:47:09.789Z,3.80
2022-08-20T04:49:38.919Z,2.78
2022-08-20T04:52:06.670Z,2.60
2022-08-20T04:54:35.727Z,3.08
2022-08-20T04:57:03.867Z,2.63
2022-08-20T04:59:31.804Z,3.45
2022-08-20T05:02:00.014Z,2.70
2022-08-20T05:04:28.393Z,2.88
2022-08-20T05:06:57.031Z,3.10
2022-08-20T05:09:24.895Z,3.70
2022-08-20T05:11:53.706Z,2.90
2022-08-20T05:14:21.496Z,3.13
2022-08-20T05:16:50.930Z,3.65
2022-08-20T05:19:19.197Z,3.00
2022-08-20T05:21:48.072Z,2.58
2022-08-20T05:24:17.030Z,3.00
2022-08-20T05:26:45.439Z,2.70
2022-08-20T05:29:13.831Z,3.15
2022-08-20T05:31:42.393Z,3.03
2022-08-20T05:34:12.691Z,3.13
2022-08-20T05:36:43.779Z,2.75
2022-08-20T05:39:13.464Z,2.70
2022-08-20T05:41:41.999Z,3.00
2022-08-20T05:44:13.492Z,2.58
2022-08-20T05:46:44.590Z,2.45
2022-08-20T05:49:19.959Z,3.10
2022-08-20T05:51:51.980Z,2.90
2022-08-20T05:54:20.273Z,2.78
2022-08-20T05:56:51.184Z,2.50
2022-08-20T05:59:23.607Z,3.38
2022-08-20T06:01:53.183Z,3.17
2022-08-20T06:04:29.716Z,3.30
2022-08-20T06:07:04.101Z,2.78
2022-08-20T06:09:33.073Z,2.90
2022-08-20T06:12:04.550Z,3.10
2022-08-20T06:14:33.368Z,2.88
2022-08-20T06:17:13.499Z,3.17
2022-08-20T06:19:44.448Z,2.83
2022-08-20T06:22:19.717Z,2.90
2022-08-20T06:24:57.027Z,3.05
2022-08-20T06:27:25.454Z,3.53
2022-08-20T06:29:54.442Z,3.05
2022-08-20T06:32:31.930Z,2.47
2022-08-20T06:35:07.268Z,2.80
2022-08-20T06:37:37.627Z,2.60
2022-08-20T06:40:16.644Z,2.85
2022-08-20T06:42:48.556Z,2.95
2022-08-20T06:45:26.550Z,3.20
2022-08-20T06:47:58.982Z,2.78
2022-08-20T06:53:19.132Z,2.60
2022-08-20T06:55:51.450Z,2.63
2022-08-20T06:58:36.355Z,3.65
2022-08-20T07:01:10.300Z,2.90
2022-08-20T07:03:42.326Z,3.88
2022-08-20T07:06:27.768Z,3.30
2022-08-20T07:08:56.145Z,2.83
2022-08-20T07:11:28.123Z,2.92
2022-08-20T07:13:58.384Z,3.10
2022-08-20T07:16:27.712Z,2.80
2022-08-20T07:18:55.830Z,4.10
2022-08-20T07:21:25.166Z,2.72
2022-08-20T07:23:54.103Z,2.60
2022-08-20T07:26:23.911Z,3.13
2022-08-20T07:28:52.518Z,2.75
2022-08-20T07:31:39.424Z,2.72
2022-08-20T07:34:11.721Z,2.63
2022-08-20T07:36:40.479Z,2.55
2022-08-20T07:39:08.425Z,2.70
2022-08-20T07:41:37.241Z,2.75
2022-08-20T07:44:05.966Z,2.97
2022-08-20T07:46:34.461Z,3.28
2022-08-20T07:49:09.863Z,2.67
2022-08-20T07:51:40.516Z,2.70
2022-08-20T07:54:09.595Z,2.75
2022-08-20T07:56:37.463Z,2.92
2022-08-20T07:59:06.275Z,2.30
2022-08-20T08:01:35.318Z,2.80
2022-08-20T08:04:03.792Z,2.83
2022-08-20T08:06:32.221Z,2.70
2022-08-20T08:09:10.693Z,2.90
2022-08-20T08:11:47.182Z,3.00
2022-08-20T08:14:23.699Z,2.70
2022-08-20T08:16:55.266Z,2.92
2022-08-20T08:21:52.811Z,2.83
2022-08-20T08:24:27.810Z,2.50
2022-08-20T08:26:56.784Z,2.83
2022-08-20T08:29:24.904Z,2.53
2022-08-20T08:31:52.755Z,2.53
2022-08-20T08:34:20.564Z,2.45
2022-08-20T08:36:49.502Z,2.60
2022-08-20T08:39:17.326Z,2.30
2022-08-20T08:41:49.636Z,2.53
2022-08-20T08:44:23.576Z,2.50
2022-08-20T08:46:59.124Z,2.97
2022-08-20T08:49:37.850Z,2.13
2022-08-20T08:52:14.792Z,2.63
2022-08-20T08:54:50.308Z,2.88
2022-08-20T08:57:19.288Z,2.60
2022-08-20T09:00:04.172Z,2.60
2022-08-20T09:02:35.383Z,2.08
2022-08-20T09:05:15.073Z,2.40
2022-08-20T09:07:48.915Z,1.90
2022-08-20T09:10:18.084Z,1.98
2022-08-20T09:12:52.467Z,2.10
2022-08-20T09:15:21.495Z,1.92
2022-08-20T09:17:49.751Z,2.33
2022-08-20T09:20:18.438Z,1.90
2022-08-20T09:22:46.630Z,2.00
2022-08-20T09:25:19.608Z,2.38
2022-08-20T09:27:47.860Z,2.30
2022-08-20T09:30:18.828Z,1.80
2022-08-20T09:32:48.907Z,2.30
2022-08-20T09:35:17.844Z,2.10
2022-08-20T09:37:47.101Z,2.40
2022-08-20T09:40:20.972Z,2.22
2022-08-20T09:42:50.429Z,2.50
2022-08-20T09:45:19.302Z,2.35
2022-08-20T09:47:55.015Z,2.17
2022-08-20T09:50:27.273Z,2.10
2022-08-20T09:52:57.859Z,2.30
2022-08-20T09:55:41.826Z,2.03
2022-08-20T09:58:27.048Z,2.28
2022-08-20T10:00:55.474Z,2.25
2022-08-20T10:03:23.483Z,2.50
2022-08-20T10:05:52.371Z,2.28
2022-08-20T10:08:20.770Z,2.67
2022-08-20T10:10:48.963Z,2.30
2022-08-20T10:13:16.963Z,2.50
2022-08-20T10:15:46.864Z,2.55
2022-08-20T10:18:15.146Z,2.60
2022-08-20T10:20:44.092Z,2.13
2022-08-20T10:23:12.146Z,2.53
2022-08-20T10:25:41.561Z,2.22
2022-08-20T10:28:09.854Z,2.28
2022-08-20T10:30:37.825Z,2.70
2022-08-20T10:33:06.565Z,2.60
2022-08-20T10:35:35.145Z,2.55
2022-08-20T10:38:03.097Z,2.35
2022-08-20T10:40:32.018Z,2.72
2022-08-20T10:43:00.323Z,3.00
2022-08-20T10:45:28.223Z,3.10
2022-08-20T10:48:02.266Z,2.15
2022-08-20T10:50:31.394Z,2.10
2022-08-20T10:53:03.855Z,2.25
2022-08-20T10:55:34.347Z,2.58
2022-08-20T10:58:06.445Z,2.70
2022-08-20T11:00:35.725Z,2.42
2022-08-20T11:03:03.813Z,2.22
2022-08-20T11:05:32.269Z,2.63
2022-08-20T11:08:02.870Z,2.60
2022-08-20T11:10:34.149Z,2.67
2022-08-20T11:13:05.257Z,2.65
2022-08-20T11:15:40.686Z,2.40
2022-08-20T11:18:10.652Z,2.40
2022-08-20T11:20:39.411Z,2.33
2022-08-20T11:23:07.804Z,2.28
2022-08-20T11:25:36.143Z,2.13
2022-08-20T11:28:05.681Z,2.40
2022-08-20T11:30:37.874Z,2.50
2022-08-20T11:33:07.386Z,3.33
2022-08-20T11:35:49.689Z,10.90
2022-08-20T11:38:19.221Z,7.40
2022-08-20T11:40:50.247Z,7.07
2022-08-20T11:43:18.599Z,3.60
2022-08-20T11:45:50.960Z,2.78
2022-08-20T11:48:19.939Z,4.75
2022-08-20T11:50:49.558Z,2.83
2022-08-20T11:53:17.563Z,3.50
2022-08-20T11:55:45.883Z,2.33
2022-08-20T11:58:14.209Z,2.55
2022-08-20T12:00:43.056Z,2.70
2022-08-20T12:03:11.617Z,2.40
2022-08-20T12:05:44.999Z,3.55
2022-08-20T12:08:25.209Z,3.22
2022-08-20T12:11:02.278Z,3.75
2022-08-20T12:13:47.794Z,3.22
2022-08-20T12:16:19.044Z,2.60
2022-08-20T12:18:48.185Z,3.17
2022-08-20T12:21:17.042Z,2.60
2022-08-20T12:23:47.380Z,2.42
2022-08-20T12:26:16.824Z,2.60
2022-08-20T12:28:45.325Z,2.63
2022-08-20T12:31:13.898Z,2.15
2022-08-20T12:33:41.936Z,2.22
2022-08-20T12:36:11.180Z,2.20
2022-08-20T12:38:39.430Z,2.20
2022-08-20T12:41:08.183Z,2.80
2022-08-20T12:43:36.561Z,2.33
2022-08-20T12:46:05.107Z,2.40
2022-08-20T12:48:33.018Z,2.50
2022-08-20T12:51:01.090Z,2.38
2022-08-20T12:53:29.361Z,2.47
2022-08-20T12:55:57.777Z,2.10
2022-08-20T12:58:28.129Z,2.60
2022-08-20T13:00:56.790Z,2.25
2022-08-20T13:03:24.731Z,2.55
2022-08-20T13:05:53.121Z,2.33
2022-08-20T13:08:21.203Z,2.22
2022-08-20T13:10:49.400Z,2.30
2022-08-20T13:13:20.117Z,2.45
2022-08-20T13:15:51.979Z,2.33
2022-08-20T13:18:21.187Z,2.20
2022-08-20T13:20:49.573Z,2.28
2022-08-20T13:23:18.136Z,2.17
2022-08-20T13:25:46.793Z,2.30
2022-08-20T13:28:15.225Z,2.20
2022-08-20T13:30:44.660Z,2.30
2022-08-20T13:33:13.136Z,2.28
2022-08-20T13:35:41.348Z,2.03
2022-08-20T13:38:09.506Z,1.90
2022-08-20T13:40:38.071Z,2.10
2022-08-20T13:43:12.111Z,2.30
2022-08-20T13:45:41.542Z,2.72
2022-08-20T13:48:15.205Z,2.20
2022-08-20T13:50:47.308Z,2.33
2022-08-20T13:53:16.689Z,2.47
2022-08-20T13:55:46.441Z,2.30
2022-08-20T13:58:15.015Z,2.47
2022-08-20T14:00:45.135Z,2.30
2022-08-20T14:03:14.288Z,2.33
2022-08-20T14:05:48.349Z,2.50
2022-08-20T14:08:20.192Z,2.30
2022-08-20T14:10:51.630Z,2.60
2022-08-20T14:13:23.969Z,2.28
2022-08-20T14:15:52.915Z,2.40
2022-08-20T14:18:21.314Z,2.53
2022-08-20T14:20:49.289Z,2.10
2022-08-20T14:23:19.674Z,2.87
2022-08-20T14:25:50.213Z,2.22
2022-08-20T14:28:22.040Z,2.17
2022-08-20T14:30:53.792Z,2.42
2022-08-20T14:33:23.725Z,2.30
2022-08-20T14:35:52.877Z,2.28
2022-08-20T14:38:22.580Z,2.55
2022-08-20T14:40:50.823Z,2.38
2022-08-20T14:43:19.336Z,2.70
2022-08-20T14:45:47.144Z,2.40
2022-08-20T14:48:18.050Z,2.65
2022-08-20T14:50:47.013Z,2.63
2022-08-20T14:53:16.265Z,2.20
2022-08-20T14:55:44.211Z,2.47
2022-08-20T14:58:15.281Z,2.55
2022-08-20T15:00:43.935Z,2.10
2022-08-20T15:03:13.504Z,2.20
2022-08-20T15:05:42.679Z,2.70
2022-08-20T15:08:12.226Z,2.50
2022-08-20T15:10:43.167Z,2.53
2022-08-20T15:13:11.855Z,2.70
2022-08-20T15:15:40.687Z,2.20
2022-08-20T15:18:09.476Z,2.70
2022-08-20T15:20:38.308Z,2.30
2022-08-20T15:23:07.258Z,2.35
2022-08-20T15:25:38.112Z,2.38
2022-08-20T15:28:09.347Z,2.65
2022-08-20T15:30:40.638Z,2.60
2022-08-20T15:33:10.278Z,2.38
2022-08-20T15:35:38.597Z,2.47
2022-08-20T15:38:06.962Z,2.50
2022-08-20T15:40:36.212Z,2.40
2022-08-20T15:43:05.562Z,2.78
2022-08-20T15:45:36.447Z,2.53
2022-08-20T15:48:18.193Z,2.55
2022-08-20T15:51:14.091Z,2.50
2022-08-20T15:53:56.637Z,2.50
2022-08-20T15:56:35.830Z,2.58
2022-08-20T15:59:28.110Z,2.65
2022-08-20T16:02:25.568Z,2.92
2022-08-20T16:04:57.205Z,2.42
2022-08-20T16:07:41.404Z,2.80
2022-08-20T16:10:35.691Z,2.97
2022-08-20T16:13:10.109Z,3.10
2022-08-20T16:15:41.434Z,2.83
2022-08-20T16:18:18.757Z,2.60
2022-08-20T16:20:51.529Z,2.85
2022-08-20T16:23:32.865Z,2.70
2022-08-20T16:26:22.702Z,2.80
2022-08-20T16:29:15.394Z,2.78
2022-08-20T16:31:56.332Z,3.20
2022-08-20T16:34:41.199Z,2.95
2022-08-20T16:37:32.666Z,3.05
2022-08-20T16:40:05.082Z,3.10
2022-08-20T16:42:45.777Z,3.35
2022-08-20T16:46:06.576Z,3.25
2022-08-20T16:48:39.146Z,3.47
2022-08-20T16:51:12.466Z,3.47
2022-08-20T16:53:40.609Z,3.28
2022-08-20T16:56:09.214Z,3.50
2022-08-20T16:58:39.982Z,2.97
2022-08-20T17:01:14.408Z,3.25
2022-08-20T17:03:50.934Z,2.90
2022-08-20T17:06:36.215Z,2.78
2022-08-20T17:09:09.518Z,2.78
2022-08-20T17:11:39.371Z,2.45
2022-08-20T17:14:16.298Z,3.45
2022-08-20T17:16:46.379Z,3.35
2022-08-20T17:19:28.742Z,2.90
2022-08-20T17:22:13.926Z,2.90
2022-08-20T17:24:41.785Z,6.07
2022-08-20T17:27:39.219Z,4.15
2022-08-20T17:30:22.734Z,3.10
2022-08-20T17:32:59.341Z,2.88
2022-08-20T17:35:33.203Z,3.03
2022-08-20T17:38:03.998Z,3.28
2022-08-20T17:40:40.748Z,3.15
2022-08-20T17:43:22.230Z,3.00
2022-08-20T17:45:51.516Z,3.10
2022-08-20T17:48:33.050Z,2.70
2022-08-20T17:51:10.781Z,2.72
2022-08-20T17:54:45.315Z,3.17
2022-08-20T17:57:17.277Z,2.80
2022-08-20T18:02:34.058Z,3.05
2022-08-20T18:05:14.452Z,3.00
2022-08-20T18:08:08.647Z,3.20
2022-08-20T18:11:03.699Z,2.83
2022-08-20T18:13:50.112Z,2.85
2022-08-20T18:16:30.069Z,3.25
2022-08-20T18:19:33.551Z,3.40
2022-08-20T18:22:16.713Z,3.80
2022-08-20T18:24:53.503Z,2.75
2022-08-20T18:27:25.351Z,2.75
2022-08-20T18:30:00.571Z,3.20
2022-08-20T18:32:36.525Z,2.60
2022-08-20T18:35:37.583Z,4.90
2022-08-20T18:38:24.647Z,4.00
2022-08-20T18:40:55.355Z,3.33
2022-08-20T18:43:30.574Z,3.30
2022-08-20T18:46:22.755Z,3.35
2022-08-20T18:51:25.750Z,6.57
2022-08-20T18:53:53.837Z,4.28
2022-08-20T18:57:08.582Z,8.48
2022-08-20T18:59:43.010Z,5.63
2022-08-20T19:02:26.707Z,5.47
2022-08-20T19:05:02.579Z,5.88
2022-08-20T19:07:48.942Z,6.03
2022-08-20T19:10:35.268Z,9.68
2022-08-20T19:13:48.494Z,5.95
2022-08-20T19:16:42.480Z,6.65
2022-08-20T19:19:19.518Z,5.60
2022-08-20T19:21:48.687Z,3.60
2022-08-20T19:24:27.226Z,3.95
2022-08-20T19:27:05.856Z,3.45
2022-08-20T19:29:40.871Z,3.10
2022-08-20T19:32:26.315Z,3.03
2022-08-20T19:34:57.260Z,2.90
2022-08-20T19:37:39.867Z,3.47
2022-08-20T19:40:30.516Z,2.60
2022-08-20T19:43:01.750Z,3.13
2022-08-20T19:45:46.112Z,2.75
2022-08-20T19:48:32.399Z,2.80
2022-08-20T19:51:22.279Z,3.08
2022-08-20T19:53:50.706Z,2.97
2022-08-20T19:56:28.478Z,3.20
2022-08-20T19:59:05.555Z,3.25
2022-08-20T20:01:37.883Z,3.10
2022-08-20T20:04:14.073Z,2.67
2022-08-20T20:06:45.570Z,3.03
2022-08-20T20:09:27.257Z,3.38
2022-08-20T20:11:57.312Z,3.00
2022-08-20T20:14:32.105Z,3.30
2022-08-20T20:17:03.768Z,3.30
2022-08-20T20:19:56.716Z,3.15
2022-08-20T20:22:29.181Z,3.72
2022-08-20T20:25:20.119Z,3.30
2022-08-20T20:27:53.665Z,3.25
2022-08-20T20:30:29.756Z,3.70
2022-08-20T20:33:00.485Z,3.38
2022-08-20T20:35:35.856Z,3.37
2022-08-20T20:38:28.899Z,3.83
2022-08-20T20:41:00.041Z,2.95
2022-08-20T20:43:41.950Z,3.42
2022-08-20T20:46:19.275Z,3.42
2022-08-20T20:48:52.382Z,3.15
2022-08-20T20:51:33.283Z,3.20
2022-08-20T20:54:04.914Z,3.05
2022-08-20T20:59:07.029Z,3.20
2022-08-20T21:01:49.642Z,3.60
2022-08-20T21:04:24.253Z,3.20
2022-08-20T21:06:55.284Z,3.88
2022-08-20T21:09:25.538Z,4.30
2022-08-20T21:11:54.169Z,3.70
2022-08-20T21:14:21.992Z,3.35
2022-08-20T21:16:50.315Z,3.33
2022-08-20T21:19:22.386Z,4.05
2022-08-20T21:24:18.350Z,3.65
2022-08-20T21:26:47.556Z,4.15
2022-08-20T21:29:18.838Z,3.58
2022-08-20T21:31:47.077Z,3.53
2022-08-20T21:34:16.382Z,3.28
2022-08-20T21:36:46.614Z,3.85
2022-08-20T21:39:14.610Z,3.58
2022-08-20T21:41:43.877Z,3.53
2022-08-20T21:44:22.635Z,3.28
2022-08-20T21:46:54.805Z,3.92
2022-08-20T21:49:25.843Z,3.45
2022-08-20T21:54:23.436Z,3.38
2022-08-20T21:57:17.878Z,3.20
2022-08-20T21:59:46.443Z,4.07
2022-08-20T22:02:18.461Z,3.22
2022-08-20T22:07:11.577Z,3.78
2022-08-20T22:09:39.719Z,3.90
2022-08-20T22:12:19.645Z,3.60
2022-08-20T22:14:48.078Z,3.55
2022-08-20T22:17:16.403Z,3.60
2022-08-20T22:19:44.169Z,4.00
2022-08-20T22:22:15.446Z,3.60
2022-08-20T22:24:45.739Z,3.45
2022-08-20T22:27:14.874Z,3.80
2022-08-20T22:29:42.725Z,4.20
2022-08-20T22:32:11.165Z,4.32
2022-08-20T22:34:39.689Z,3.90
2022-08-20T22:37:08.773Z,3.90
2022-08-20T22:39:38.469Z,3.65
2022-08-20T22:44:33.038Z,3.80
2022-08-20T22:47:06.374Z,4.20
2022-08-20T22:49:39.760Z,3.53
2022-08-20T22:52:09.501Z,3.65
2022-08-20T22:54:38.381Z,3.97
2022-08-20T22:57:13.536Z,3.85
2022-08-20T22:59:53.262Z,4.05
2022-08-20T23:02:23.218Z,3.95
2022-08-20T23:04:51.775Z,3.65
2022-08-20T23:07:20.225Z,3.65
2022-08-20T23:09:49.727Z,4.13
2022-08-20T23:12:18.933Z,4.10
2022-08-20T23:14:47.302Z,3.83
2022-08-20T23:17:19.135Z,3.55
2022-08-20T23:19:49.084Z,3.50
2022-08-20T23:22:19.084Z,4.00
2022-08-20T23:24:47.442Z,3.70
2022-08-20T23:27:18.511Z,3.60
2022-08-20T23:32:15.102Z,3.17
2022-08-20T23:34:43.843Z,3.75
2022-08-20T23:37:13.162Z,3.40
2022-08-20T23:39:41.642Z,3.30
2022-08-20T23:42:11.102Z,3.53
2022-08-20T23:44:39.215Z,3.33
2022-08-20T23:47:08.525Z,3.85
2022-08-20T23:49:37.414Z,3.70
2022-08-20T23:52:06.000Z,3.60
2022-08-20T23:54:36.944Z,3.03
2022-08-20T23:59:36.752Z,3.13
